Time;durP1;ratioP1;P1;durP2;ratioP2;P2;SDS_P1;SDS_P2;PMS_P1;PMS_P2;Temp;Humidity;BMP_temperature;BMP_pressure;BME280_temperature;BME280_humidity;BME280_pressure;Samples;Min_cycle;Max_cycle;Signal;HPM_P1;HPM_P2
2021/09/02 00:02:15;;;;;;;5.38;4.50;;;19.50;77.80;;;;;;5012667;28;20544;-64
2021/09/02 00:04:41;;;;;;;4.97;4.32;;;19.40;77.70;;;;;;5015338;28;20026;-63
2021/09/02 00:07:07;;;;;;;6.38;5.45;;;19.40;77.80;;;;;;5015327;28;20068;-64
2021/09/02 00:09:32;;;;;;;5.43;4.65;;;19.40;78.00;;;;;;5014651;28;20405;-64
2021/09/02 00:11:58;;;;;;;5.47;4.60;;;19.40;78.00;;;;;;5015190;28;20029;-64
2021/09/02 00:14:24;;;;;;;4.82;4.25;;;19.40;78.20;;;;;;5015279;28;20048;-64
2021/09/02 00:16:50;;;;;;;5.93;5.15;;;19.30;78.30;;;;;;5014769;28;20060;-64
2021/09/02 00:19:17;;;;;;;5.75;5.00;;;19.30;78.40;;;;;;5015473;28;20488;-64
2021/09/02 00:21:42;;;;;;;6.32;4.80;;;19.30;78.60;;;;;;5015612;28;20156;-64
2021/09/02 00:24:08;;;;;;;5.15;4.65;;;19.30;78.60;;;;;;5014565;28;20452;-64
2021/09/02 00:26:34;;;;;;;8.93;5.70;;;19.30;78.70;;;;;;5015155;28;20022;-64
2021/09/02 00:29:00;;;;;;;5.03;4.53;;;19.20;79.00;;;;;;5014491;28;20022;-64
2021/09/02 00:31:26;;;;;;;5.80;5.20;;;19.20;79.00;;;;;;4998321;28;20050;-64
2021/09/02 00:33:52;;;;;;;6.15;5.32;;;19.20;79.20;;;;;;4995886;28;20027;-64
2021/09/02 00:36:18;;;;;;;6.82;5.30;;;19.20;79.50;;;;;;4995507;28;20038;-64
2021/09/02 00:38:43;;;;;;;4.97;4.47;;;19.10;79.40;;;;;;5007190;28;20038;-64
2021/09/02 00:41:09;;;;;;;6.55;5.30;;;19.10;79.50;;;;;;5015197;28;20029;-64
2021/09/02 00:43:39;;;;;;;5.85;4.70;;;19.10;79.50;;;;;;5014737;28;20037;-64
2021/09/02 00:46:06;;;;;;;5.85;5.25;;;19.00;79.70;;;;;;5015002;28;20101;-64
2021/09/02 00:48:33;;;;;;;6.28;5.40;;;19.00;79.70;;;;;;5014194;28;20037;-64
2021/09/02 00:50:59;;;;;;;6.30;5.25;;;19.00;79.90;;;;;;5014065;28;20022;-64
2021/09/02 00:53:24;;;;;;;5.88;4.95;;;19.00;80.10;;;;;;5007521;28;20124;-64
2021/09/02 00:55:50;;;;;;;7.00;5.85;;;19.00;80.20;;;;;;4995163;28;20038;-64
2021/09/02 00:58:19;;;;;;;6.57;5.13;;;18.90;80.60;;;;;;4995435;28;20030;-64
2021/09/02 01:00:47;;;;;;;5.78;5.18;;;18.90;80.50;;;;;;4994891;28;20034;-64
2021/09/02 01:03:12;;;;;;;7.90;5.90;;;18.90;80.50;;;;;;4995009;28;20035;-64
2021/09/02 01:05:38;;;;;;;5.60;4.93;;;18.80;80.60;;;;;;5011288;28;20386;-64
2021/09/02 01:08:06;;;;;;;6.22;5.30;;;18.80;81.00;;;;;;5013910;28;20026;-64
2021/09/02 01:10:32;;;;;;;5.60;5.05;;;18.80;81.30;;;;;;5014067;28;20025;-64
2021/09/02 01:12:57;;;;;;;5.97;5.38;;;18.70;81.40;;;;;;5014101;28;20339;-64
2021/09/02 01:15:26;;;;;;;8.07;5.45;;;18.70;81.30;;;;;;5014293;28;20026;-64
2021/09/02 01:17:55;;;;;;;5.50;4.90;;;18.70;81.50;;;;;;5014418;28;20021;-64
2021/09/02 01:20:24;;;;;;;6.53;4.93;;;18.70;81.60;;;;;;5013348;28;20022;-64
2021/09/02 01:22:52;;;;;;;5.22;4.47;;;18.70;81.80;;;;;;5002833;28;20390;-64
2021/09/02 01:25:24;;;;;;;6.35;5.00;;;18.70;82.20;;;;;;5031854;28;20022;-64
2021/09/02 01:27:51;;;;;;;5.57;4.28;;;18.70;82.60;;;;;;5034100;28;20112;-64
2021/09/02 01:30:18;;;;;;;5.00;4.18;;;18.70;82.50;;;;;;5015511;28;20100;-64
2021/09/02 01:32:46;;;;;;;6.72;4.60;;;18.80;82.70;;;;;;5013824;28;20053;-64
2021/09/02 01:35:13;;;;;;;4.63;4.13;;;18.70;82.60;;;;;;5013877;28;20053;-63
2021/09/02 01:37:49;;;;;;;5.85;4.38;;;18.80;82.80;;;;;;5013921;28;20022;-63
2021/09/02 01:40:19;;;;;;;4.43;3.92;;;18.80;82.50;;;;;;4994539;28;20105;-64
2021/09/02 01:42:45;;;;;;;4.55;3.95;;;18.80;82.50;;;;;;4998349;28;20430;-64
2021/09/02 01:45:12;;;;;;;9.55;4.30;;;18.80;82.50;;;;;;4999124;28;20078;-64
2021/09/02 01:47:37;;;;;;;5.45;3.70;;;18.80;82.70;;;;;;4994808;28;20031;-64
2021/09/02 01:50:10;;;;;;;4.43;3.97;;;18.80;82.50;;;;;;5005970;28;20386;-63
2021/09/02 01:52:37;;;;;;;4.78;3.80;;;18.80;82.60;;;;;;5013685;28;20034;-64
2021/09/02 01:55:05;;;;;;;6.65;3.80;;;18.80;82.20;;;;;;5013964;28;20504;-64
2021/09/02 01:57:30;;;;;;;3.70;3.33;;;18.80;82.20;;;;;;5013814;28;20039;-64
2021/09/02 01:59:56;;;;;;;3.58;3.10;;;18.80;82.00;;;;;;5013747;28;20478;-64
2021/09/02 02:02:22;;;;;;;4.00;3.10;;;18.70;81.80;;;;;;5013423;28;20156;-64
2021/09/02 02:04:48;;;;;;;3.85;3.00;;;18.70;81.90;;;;;;5013614;28;20033;-64
2021/09/02 02:07:13;;;;;;;2.88;2.53;;;18.70;82.00;;;;;;5013451;28;20084;-64
2021/09/02 02:09:39;;;;;;;3.47;3.05;;;18.70;81.90;;;;;;5009804;28;20018;-64
2021/09/02 02:12:05;;;;;;;3.55;3.17;;;18.70;82.00;;;;;;5013422;28;20204;-64
2021/09/02 02:14:31;;;;;;;3.15;2.72;;;18.70;82.20;;;;;;5012103;28;20034;-64
2021/09/02 02:16:56;;;;;;;3.05;2.75;;;18.60;82.00;;;;;;5016319;28;20037;-64
2021/09/02 02:19:22;;;;;;;3.25;2.90;;;18.60;82.10;;;;;;5017400;28;20097;-64
2021/09/02 02:21:47;;;;;;;3.13;2.70;;;18.60;82.20;;;;;;5017444;28;20026;-64
2021/09/02 02:24:13;;;;;;;3.67;2.70;;;18.60;82.40;;;;;;5019794;28;20033;-64
2021/09/02 02:26:39;;;;;;;3.65;3.20;;;18.60;82.80;;;;;;5017405;28;20022;-64
2021/09/02 02:29:05;;;;;;;3.20;2.90;;;18.60;83.00;;;;;;5017423;28;20018;-63
2021/09/02 02:31:31;;;;;;;4.32;3.20;;;18.60;82.90;;;;;;5017158;28;20093;-63
2021/09/02 02:33:56;;;;;;;2.85;2.55;;;18.60;83.10;;;;;;5017227;28;20049;-63
2021/09/02 02:36:22;;;;;;;2.72;2.45;;;18.60;83.00;;;;;;5016522;28;20401;-64
2021/09/02 02:38:48;;;;;;;3.38;2.92;;;18.60;83.20;;;;;;5008079;28;20061;-64
2021/09/02 02:41:13;;;;;;;3.05;2.72;;;18.60;82.90;;;;;;5016983;28;20087;-64
2021/09/02 02:43:39;;;;;;;3.88;2.85;;;18.60;83.20;;;;;;5016970;28;20394;-64
2021/09/02 02:46:04;;;;;;;3.00;2.70;;;18.60;83.20;;;;;;5017126;28;20091;-64
2021/09/02 02:48:31;;;;;;;3.95;3.00;;;18.60;82.90;;;;;;5016863;28;20022;-64
2021/09/02 02:50:56;;;;;;;2.80;2.60;;;18.60;83.00;;;;;;5016784;28;20018;-64
2021/09/02 02:53:22;;;;;;;3.58;2.97;;;18.60;82.90;;;;;;5017160;28;20026;-64
2021/09/02 02:55:48;;;;;;;3.60;2.88;;;18.50;83.00;;;;;;5016813;28;20084;-64
2021/09/02 02:58:13;;;;;;;3.00;2.70;;;18.50;83.20;;;;;;5016866;28;20085;-64
2021/09/02 03:00:39;;;;;;;3.15;2.85;;;18.50;83.10;;;;;;5016640;28;20109;-64
2021/09/02 03:03:05;;;;;;;3.45;3.15;;;18.50;83.60;;;;;;5016556;28;20033;-64
2021/09/02 03:05:30;;;;;;;4.10;3.08;;;18.50;83.70;;;;;;5015967;28;20029;-64
2021/09/02 03:07:56;;;;;;;3.15;2.85;;;18.50;83.60;;;;;;5006777;28;20033;-64
2021/09/02 03:10:21;;;;;;;4.28;3.40;;;18.40;83.60;;;;;;4996922;28;20025;-64
2021/09/02 03:12:47;;;;;;;5.03;3.78;;;18.40;83.70;;;;;;4997181;28;20069;-64
2021/09/02 03:15:13;;;;;;;3.67;3.30;;;18.40;83.60;;;;;;4996956;28;20030;-64
2021/09/02 03:17:38;;;;;;;3.75;3.35;;;18.40;83.90;;;;;;4996828;28;20027;-64
2021/09/02 03:20:06;;;;;;;3.88;3.40;;;18.40;83.90;;;;;;5005402;28;20037;-64
2021/09/02 03:22:32;;;;;;;3.90;3.50;;;18.30;84.60;;;;;;5016243;28;20040;-64
2021/09/02 03:24:58;;;;;;;3.50;3.20;;;18.40;84.10;;;;;;5032234;28;20017;-64
2021/09/02 03:27:24;;;;;;;3.58;3.15;;;18.40;84.10;;;;;;5034911;28;20068;-64
2021/09/02 03:29:49;;;;;;;5.18;3.78;;;18.40;84.10;;;;;;5036247;28;20026;-64
2021/09/02 03:32:15;;;;;;;4.18;3.40;;;18.40;83.90;;;;;;5028501;28;20486;-64
2021/09/02 03:34:41;;;;;;;4.00;3.50;;;18.40;83.80;;;;;;5014216;28;20041;-64
2021/09/02 03:37:06;;;;;;;4.68;3.78;;;18.40;83.70;;;;;;5001270;28;20116;-64
2021/09/02 03:39:32;;;;;;;4.70;3.30;;;18.40;83.90;;;;;;5015798;28;20030;-64
2021/09/02 03:41:58;;;;;;;3.88;3.28;;;18.40;83.80;;;;;;5016224;28;20501;-64
2021/09/02 03:44:24;;;;;;;4.10;3.38;;;18.40;83.90;;;;;;5015871;28;20029;-64
2021/09/02 03:46:50;;;;;;;5.13;3.50;;;18.40;84.00;;;;;;5016036;28;20030;-64
2021/09/02 03:49:15;;;;;;;4.05;3.53;;;18.40;84.10;;;;;;5015676;28;20512;-64
2021/09/02 03:51:41;;;;;;;3.60;3.15;;;18.40;84.50;;;;;;5015818;28;20034;-64
2021/09/02 03:54:07;;;;;;;5.50;3.17;;;18.50;84.70;;;;;;5015550;28;20026;-64
2021/09/02 03:56:33;;;;;;;4.63;3.00;;;18.50;84.40;;;;;;5015437;28;20030;-64
2021/09/02 03:58:59;;;;;;;4.30;3.20;;;18.50;84.30;;;;;;5015664;28;20022;-64
2021/09/02 04:01:28;;;;;;;4.60;3.22;;;18.50;84.10;;;;;;5015483;28;20032;-66
2021/09/02 04:03:54;;;;;;;4.68;2.92;;;18.50;83.70;;;;;;5005272;28;20039;-64
2021/09/02 04:06:20;;;;;;;6.28;3.30;;;18.40;83.00;;;;;;4996495;28;20386;-66
2021/09/02 04:08:46;;;;;;;4.40;3.33;;;18.40;82.80;;;;;;5007318;28;20038;-64
2021/09/02 04:11:12;;;;;;;4.88;3.50;;;18.30;82.70;;;;;;5014019;28;20029;-64
2021/09/02 04:13:38;;;;;;;5.05;3.60;;;18.30;82.00;;;;;;5015321;28;20022;-64
2021/09/02 04:16:04;;;;;;;5.57;3.72;;;18.30;82.00;;;;;;5014429;28;20038;-64
2021/09/02 04:18:29;;;;;;;7.40;4.32;;;18.20;81.70;;;;;;5014701;28;20413;-64
2021/09/02 04:20:55;;;;;;;5.63;3.80;;;18.20;81.40;;;;;;5014990;28;20033;-64
2021/09/02 04:23:21;;;;;;;7.38;4.07;;;18.20;81.40;;;;;;5015017;28;20021;-64
2021/09/02 04:25:47;;;;;;;5.85;3.83;;;18.10;81.30;;;;;;5013562;28;20108;-64
2021/09/02 04:28:12;;;;;;;5.47;3.85;;;18.10;82.30;;;;;;5012516;28;20466;-64
2021/09/02 04:30:38;;;;;;;4.95;3.60;;;18.10;81.50;;;;;;5014594;28;20084;-64
2021/09/02 04:33:04;;;;;;;5.00;3.70;;;18.10;81.50;;;;;;5014361;28;20050;-64
2021/09/02 04:35:29;;;;;;;5.72;3.40;;;18.10;81.10;;;;;;5032617;28;20049;-64
2021/09/02 04:37:55;;;;;;;6.43;4.20;;;18.10;81.10;;;;;;5025889;28;20450;-64
2021/09/02 04:40:21;;;;;;;5.97;4.10;;;18.10;81.00;;;;;;5014795;28;20059;-64
2021/09/02 04:42:48;;;;;;;5.75;4.63;;;18.00;81.00;;;;;;5014214;28;20034;-64
2021/09/02 04:45:14;;;;;;;6.70;4.75;;;18.00;81.00;;;;;;5013241;28;20026;-64
2021/09/02 04:47:40;;;;;;;5.95;4.20;;;18.10;80.50;;;;;;5013417;28;20024;-64
2021/09/02 04:50:07;;;;;;;6.28;4.03;;;18.00;80.40;;;;;;5013126;28;20034;-64
2021/09/02 04:52:33;;;;;;;7.90;4.60;;;18.00;80.40;;;;;;5012944;28;20036;-64
2021/09/02 04:54:59;;;;;;;5.88;4.22;;;18.00;80.40;;;;;;5010504;28;20026;-64
2021/09/02 04:57:24;;;;;;;6.13;4.25;;;18.00;80.60;;;;;;5001877;28;20042;-64
2021/09/02 04:59:50;;;;;;;8.27;4.28;;;18.00;80.60;;;;;;5002724;28;20029;-64
2021/09/02 05:02:16;;;;;;;5.93;4.20;;;18.00;80.30;;;;;;5012018;28;20040;-65
2021/09/02 05:04:42;;;;;;;5.65;4.50;;;18.00;81.10;;;;;;5013386;28;20120;-65
2021/09/02 05:07:08;;;;;;;5.53;4.03;;;18.10;81.80;;;;;;5010497;28;20022;-65
2021/09/02 05:09:34;;;;;;;5.63;4.13;;;18.20;81.80;;;;;;5010816;28;20022;-65
2021/09/02 05:12:00;;;;;;;6.80;4.13;;;18.40;81.40;;;;;;5012808;28;20101;-65
2021/09/02 05:14:25;;;;;;;5.20;3.85;;;18.60;80.70;;;;;;5012020;28;20042;-65
2021/09/02 05:16:51;;;;;;;4.88;4.03;;;18.70;80.10;;;;;;5013175;28;20381;-65
2021/09/02 05:19:17;;;;;;;5.30;4.07;;;18.80;79.50;;;;;;5011222;28;20401;-65
2021/09/02 05:21:42;;;;;;;5.50;4.22;;;19.00;78.70;;;;;;5010552;28;20037;-56
2021/09/02 05:24:08;;;;;;;5.50;4.10;;;19.10;78.00;;;;;;5009642;28;20576;-55
2021/09/02 05:26:34;;;;;;;6.28;4.10;;;19.20;77.60;;;;;;5008397;28;20389;-55
2021/09/02 05:29:00;;;;;;;5.80;4.18;;;19.30;77.10;;;;;;5009260;28;20029;-55
2021/09/02 05:31:26;;;;;;;6.05;3.90;;;19.30;76.60;;;;;;5007653;28;20049;-54
2021/09/02 05:33:53;;;;;;;5.10;3.70;;;19.30;76.30;;;;;;5009969;28;20398;-53
2021/09/02 05:36:19;;;;;;;7.28;4.22;;;19.30;76.20;;;;;;5007274;28;20025;-55
2021/09/02 05:38:45;;;;;;;5.15;4.05;;;19.30;76.20;;;;;;5010722;28;20044;-56
2021/09/02 05:41:11;;;;;;;5.63;4.32;;;19.40;76.10;;;;;;5007658;28;20040;-54
2021/09/02 05:43:37;;;;;;;5.63;4.28;;;19.50;76.00;;;;;;5004923;28;20436;-56
2021/09/02 05:46:02;;;;;;;5.22;3.80;;;19.50;75.70;;;;;;5008727;28;20048;-60
2021/09/02 05:48:28;;;;;;;6.32;4.07;;;19.60;75.90;;;;;;5009336;28;20504;-60
2021/09/02 05:50:54;;;;;;;8.70;4.07;;;19.70;76.50;;;;;;5010203;28;20109;-60
2021/09/02 05:53:21;;;;;;;5.18;3.90;;;19.90;75.60;;;;;;5012289;28;20107;-59
2021/09/02 05:55:48;;;;;;;5.30;4.20;;;20.10;74.80;;;;;;5007559;28;20088;-58
2021/09/02 05:58:14;;;;;;;5.07;3.75;;;20.30;74.40;;;;;;5009957;28;20022;-60
2021/09/02 06:00:40;;;;;;;6.07;4.30;;;20.40;73.90;;;;;;5013095;28;20037;-58
2021/09/02 06:03:05;;;;;;;5.07;4.03;;;20.60;73.60;;;;;;5016022;28;20084;-59
2021/09/02 06:05:31;;;;;;;4.97;3.75;;;20.80;73.20;;;;;;5015736;28;20404;-59
2021/09/02 06:07:58;;;;;;;5.18;4.20;;;20.90;72.70;;;;;;5012888;28;20022;-59
2021/09/02 06:10:23;;;;;;;5.20;3.90;;;21.00;72.20;;;;;;5012787;28;20181;-59
2021/09/02 06:12:49;;;;;;;5.82;4.18;;;21.20;71.70;;;;;;5013785;28;20120;-59
2021/09/02 06:15:15;;;;;;;5.65;4.22;;;21.40;71.20;;;;;;5013757;28;20713;-58
2021/09/02 06:17:41;;;;;;;5.90;4.53;;;21.50;70.70;;;;;;5010874;28;20038;-59
2021/09/02 06:20:08;;;;;;;5.32;4.63;;;21.60;70.20;;;;;;5007250;28;20029;-59
2021/09/02 06:22:34;;;;;;;6.72;4.63;;;21.70;69.70;;;;;;5006826;28;20034;-59
2021/09/02 06:25:00;;;;;;;9.25;4.60;;;21.70;69.50;;;;;;5012467;28;20026;-59
2021/09/02 06:27:27;;;;;;;7.07;4.25;;;21.80;69.20;;;;;;5009495;28;20034;-59
2021/09/02 06:29:52;;;;;;;7.10;4.78;;;21.90;69.20;;;;;;5008990;28;20041;-58
2021/09/02 06:32:18;;;;;;;6.43;4.40;;;22.00;68.70;;;;;;5006302;28;20050;-58
2021/09/02 06:34:44;;;;;;;6.15;4.63;;;22.00;68.40;;;;;;5008923;28;20033;-59
2021/09/02 06:37:10;;;;;;;6.93;4.15;;;22.10;68.30;;;;;;5009871;28;20034;-58
2021/09/02 06:39:35;;;;;;;4.93;4.18;;;22.10;68.40;;;;;;5011981;28;20048;-57
2021/09/02 06:42:01;;;;;;;7.47;4.53;;;22.00;68.20;;;;;;5014806;28;20057;-58
2021/09/02 06:44:27;;;;;;;5.10;4.45;;;22.00;68.20;;;;;;5013173;28;20128;-59
2021/09/02 06:46:52;;;;;;;5.40;4.65;;;22.00;68.10;;;;;;5011515;28;20030;-59
2021/09/02 06:49:20;;;;;;;6.22;4.18;;;22.00;68.20;;;;;;5007735;28;20076;-58
2021/09/02 06:51:46;;;;;;;8.93;4.30;;;22.10;68.00;;;;;;5011909;28;20048;-56
2021/09/02 06:54:11;;;;;;;5.10;4.60;;;22.10;67.90;;;;;;5006688;28;20045;-57
2021/09/02 06:56:37;;;;;;;4.82;4.22;;;22.20;67.80;;;;;;5010205;28;20030;-57
2021/09/02 06:59:03;;;;;;;4.60;3.88;;;22.20;67.30;;;;;;5018304;28;20033;-57
2021/09/02 07:01:29;;;;;;;6.32;4.30;;;22.30;67.20;;;;;;5014537;28;20063;-57
2021/09/02 07:03:54;;;;;;;6.80;4.15;;;22.40;67.10;;;;;;5010901;28;20108;-57
2021/09/02 07:06:20;;;;;;;5.05;3.85;;;22.50;66.90;;;;;;5001182;28;20038;-58
2021/09/02 07:08:46;;;;;;;6.82;4.28;;;22.50;66.80;;;;;;4997940;28;20119;-59
2021/09/02 07:11:11;;;;;;;5.70;4.28;;;22.60;66.40;;;;;;4999069;28;20018;-57
2021/09/02 07:13:37;;;;;;;5.57;4.32;;;22.60;66.10;;;;;;5009959;28;20487;-56
2021/09/02 07:16:04;;;;;;;5.05;4.07;;;22.60;65.90;;;;;;5003014;28;20034;-55
2021/09/02 07:18:30;;;;;;;5.22;3.83;;;22.50;65.50;;;;;;5003399;28;20057;-57
2021/09/02 07:20:56;;;;;;;5.25;4.30;;;22.30;65.50;;;;;;5008551;28;20039;-55
2021/09/02 07:23:21;;;;;;;5.60;4.38;;;22.10;65.60;;;;;;4999724;28;20044;-54
2021/09/02 07:25:48;;;;;;;5.30;4.40;;;22.00;66.30;;;;;;5004183;28;20030;-56
2021/09/02 07:28:14;;;;;;;5.50;4.00;;;21.80;66.60;;;;;;5003105;28;20030;-55
2021/09/02 07:30:41;;;;;;;5.22;4.22;;;21.70;67.00;;;;;;5000426;28;20065;-57
2021/09/02 07:33:07;;;;;;;5.60;3.78;;;21.60;67.10;;;;;;5002632;28;20038;-56
2021/09/02 07:35:33;;;;;;;4.70;3.88;;;21.50;67.30;;;;;;5004097;28;20728;-55
2021/09/02 07:37:58;;;;;;;5.28;4.25;;;21.40;67.30;;;;;;5002286;28;20056;-56
2021/09/02 07:40:24;;;;;;;8.45;4.35;;;21.40;67.10;;;;;;5002583;28;20022;-53
2021/09/02 07:42:50;;;;;;;4.78;3.88;;;21.30;67.20;;;;;;5003909;28;20128;-53
2021/09/02 07:45:16;;;;;;;4.75;4.00;;;21.30;66.80;;;;;;4990912;28;20038;-54
2021/09/02 07:47:41;;;;;;;6.80;3.85;;;21.20;66.90;;;;;;4996242;28;20044;-54
2021/09/02 07:50:09;;;;;;;4.80;3.90;;;21.10;66.70;;;;;;4996269;28;20060;-51
2021/09/02 07:52:36;;;;;;;7.15;3.83;;;21.10;66.80;;;;;;4995323;28;20037;-54
2021/09/02 07:55:03;;;;;;;5.53;4.20;;;21.00;67.30;;;;;;4989513;28;20121;-52
2021/09/02 07:57:29;;;;;;;6.07;4.03;;;20.90;67.30;;;;;;4991533;28;20034;-54
2021/09/02 07:59:55;;;;;;;6.13;4.43;;;20.90;67.60;;;;;;4995969;28;20097;-53
2021/09/02 08:02:20;;;;;;;5.13;4.10;;;20.90;67.90;;;;;;4997607;28;20038;-54
2021/09/02 08:04:46;;;;;;;4.90;4.18;;;21.00;68.00;;;;;;5000109;28;20613;-55
2021/09/02 08:07:11;;;;;;;4.80;3.75;;;21.00;67.80;;;;;;5001548;28;20018;-55
2021/09/02 08:09:37;;;;;;;5.18;3.95;;;21.10;67.40;;;;;;4997458;28;20044;-55
2021/09/02 08:12:03;;;;;;;4.55;3.50;;;21.20;66.90;;;;;;4998676;28;20034;-55
2021/09/02 08:14:29;;;;;;;4.82;3.80;;;21.30;66.60;;;;;;5003080;28;20040;-55
2021/09/02 08:16:54;;;;;;;5.05;3.70;;;21.30;66.50;;;;;;5002644;28;20039;-55
2021/09/02 08:19:20;;;;;;;4.57;3.67;;;21.40;66.10;;;;;;4994773;28;20033;-57
2021/09/02 08:21:47;;;;;;;4.95;3.88;;;21.40;65.80;;;;;;4992009;28;20076;-55
2021/09/02 08:24:13;;;;;;;4.15;3.58;;;21.30;65.60;;;;;;4994024;28;20489;-52
2021/09/02 08:26:39;;;;;;;4.22;3.80;;;21.30;65.50;;;;;;4987001;28;20022;-55
2021/09/02 08:29:05;;;;;;;5.07;3.90;;;21.30;65.60;;;;;;4995675;28;20057;-55
2021/09/02 08:31:31;;;;;;;5.13;3.70;;;21.20;65.50;;;;;;4994039;28;20052;-56
2021/09/02 08:33:56;;;;;;;3.92;3.45;;;21.20;65.50;;;;;;4997626;28;20042;-53
2021/09/02 08:36:22;;;;;;;4.88;3.75;;;21.20;65.60;;;;;;5001313;28;20034;-53
2021/09/02 08:38:48;;;;;;;3.65;3.20;;;21.20;65.50;;;;;;4991113;28;20030;-55
2021/09/02 08:41:18;;;;;;;5.85;3.78;;;21.20;65.60;;;;;;4992698;28;20125;-54
2021/09/02 08:43:45;;;;;;;4.53;3.70;;;21.10;65.20;;;;;;5009344;28;20034;-53
2021/09/02 08:46:11;;;;;;;5.45;3.50;;;21.00;64.70;;;;;;4995052;28;20037;-55
2021/09/02 08:48:42;;;;;;;6.68;3.20;;;21.00;64.60;;;;;;4986741;28;20032;-57
2021/09/02 08:51:08;;;;;;;;;;;20.90;64.60;;;;;;4997149;28;20029;-54
2021/09/02 08:53:34;;;;;;;3.53;3.03;;;20.70;64.10;;;;;;4996678;28;19913;-52
2021/09/02 08:55:59;;;;;;;5.10;3.88;;;20.70;65.10;;;;;;4976617;28;20038;-57
2021/09/02 08:58:25;;;;;;;4.93;3.70;;;20.60;64.70;;;;;;5003762;28;20434;-54
2021/09/02 09:00:51;;;;;;;5.20;3.75;;;20.60;64.70;;;;;;5000085;28;20036;-55
2021/09/02 09:03:18;;;;;;;4.63;3.70;;;20.50;64.50;;;;;;4992685;28;20416;-53
2021/09/02 09:05:51;;;;;;;4.80;3.58;;;20.50;64.60;;;;;;4997997;28;20541;-57
2021/09/02 09:08:17;;;;;;;5.82;3.83;;;20.40;65.10;;;;;;5000681;28;20026;-55
2021/09/02 09:10:42;;;;;;;4.50;3.25;;;20.40;65.10;;;;;;5002622;28;20493;-52
2021/09/02 09:13:09;;;;;;;5.40;3.70;;;20.40;65.00;;;;;;4995714;28;20044;-52
2021/09/02 09:15:40;;;;;;;4.20;3.22;;;20.50;65.10;;;;;;4990625;28;20672;-54
2021/09/02 09:18:23;;;;;;;4.65;3.28;;;20.50;65.20;;;;;;4992378;28;20048;-56
2021/09/02 09:21:12;;;;;;;3.78;3.00;;;20.50;64.90;;;;;;4989252;28;20108;-55
2021/09/02 09:23:55;;;;;;;4.97;3.03;;;20.50;64.50;;;;;;4993908;28;20482;-53
2021/09/02 09:26:21;;;;;;;6.57;3.35;;;20.60;64.40;;;;;;4997744;28;20090;-54
2021/09/02 09:28:48;;;;;;;3.70;3.05;;;20.60;64.30;;;;;;4997654;28;20029;-56
2021/09/02 09:31:26;;;;;;;3.25;2.67;;;20.60;63.90;;;;;;4996173;28;20050;-56
2021/09/02 09:33:54;;;;;;;4.13;2.80;;;20.60;63.80;;;;;;4993973;28;20145;-57
2021/09/02 09:36:24;;;;;;;5.05;2.90;;;20.50;63.30;;;;;;4997326;28;20033;-57
2021/09/02 09:39:17;;;;;;;3.75;2.78;;;20.40;63.70;;;;;;4998451;28;20026;-55
2021/09/02 09:41:44;;;;;;;4.88;3.13;;;20.30;63.10;;;;;;4990309;28;20048;-56
2021/09/02 09:44:23;;;;;;;4.10;2.80;;;20.30;63.60;;;;;;5000377;28;20030;-54
2021/09/02 09:47:18;;;;;;;3.25;2.60;;;20.30;63.50;;;;;;4999825;28;20045;-56
2021/09/02 09:49:53;;;;;;;4.65;2.90;;;20.30;62.60;;;;;;4999665;28;20775;-54
2021/09/02 09:52:31;;;;;;;5.55;2.75;;;20.30;62.30;;;;;;5002437;28;20122;-54
2021/09/02 09:55:09;;;;;;;3.35;2.30;;;20.30;61.60;;;;;;4995238;28;20034;-55
2021/09/02 09:57:37;;;;;;;3.40;2.28;;;20.30;60.80;;;;;;4993566;28;20034;-55
2021/09/02 10:00:15;;;;;;;3.67;2.75;;;20.30;60.80;;;;;;5000526;28;20038;-56
2021/09/02 10:02:44;;;;;;;4.10;2.75;;;20.30;60.60;;;;;;4991827;28;20093;-56
2021/09/02 10:05:12;;;;;;;3.97;2.58;;;20.20;59.50;;;;;;5001860;28;20026;-56
2021/09/02 10:07:41;;;;;;;5.63;2.60;;;20.10;59.60;;;;;;4994114;28;20085;-56
2021/09/02 10:10:13;;;;;;;2.90;2.35;;;20.10;59.90;;;;;;5001957;28;20030;-56
2021/09/02 10:12:43;;;;;;;3.58;2.50;;;20.00;59.80;;;;;;4998648;28;20537;-56
2021/09/02 10:15:11;;;;;;;2.65;2.22;;;20.00;59.40;;;;;;5002302;28;20041;-56
2021/09/02 10:17:39;;;;;;;3.58;2.58;;;19.90;59.50;;;;;;4997642;28;20081;-56
2021/09/02 10:20:21;;;;;;;5.90;2.15;;;19.90;59.40;;;;;;5001339;28;20029;-57
2021/09/02 10:22:49;;;;;;;3.55;2.72;;;19.90;59.30;;;;;;4995799;28;20553;-56
2021/09/02 10:25:30;;;;;;;3.35;2.30;;;20.00;59.40;;;;;;5000464;28;20038;-55
2021/09/02 10:28:08;;;;;;;3.80;2.03;;;20.00;59.20;;;;;;5000602;28;20120;-55
2021/09/02 10:30:56;;;;;;;4.32;2.60;;;20.10;58.90;;;;;;5004388;28;20033;-56
2021/09/02 10:33:41;;;;;;;4.30;2.08;;;20.10;58.40;;;;;;4982812;28;20062;-56
2021/09/02 10:36:10;;;;;;;2.22;1.90;;;20.00;57.90;;;;;;4977586;28;20038;-56
2021/09/02 10:38:39;;;;;;;3.55;2.38;;;20.00;57.10;;;;;;4982305;28;20389;-56
2021/09/02 10:41:07;;;;;;;3.22;2.10;;;20.00;56.70;;;;;;4990324;28;20500;-56
2021/09/02 10:43:53;;;;;;;3.47;2.00;;;20.00;56.20;;;;;;4986992;28;20050;-54
2021/09/02 10:46:50;;;;;;;5.85;2.13;;;19.90;55.30;;;;;;4982079;28;20034;-56
2021/09/02 10:49:19;;;;;;;2.63;1.85;;;19.90;55.20;;;;;;4984406;28;20034;-56
2021/09/02 10:51:56;;;;;;;2.05;1.73;;;19.80;55.20;;;;;;4986587;28;20033;-56
2021/09/02 10:54:31;;;;;;;2.65;2.10;;;19.80;54.60;;;;;;4983293;28;20037;-55
2021/09/02 10:56:58;;;;;;;3.22;2.22;;;19.70;54.60;;;;;;4987467;28;20025;-55
2021/09/02 10:59:42;;;;;;;4.05;2.10;;;19.70;56.00;;;;;;4981965;28;20044;-56
2021/09/02 11:02:29;;;;;;;3.47;2.30;;;19.70;56.40;;;;;;4980276;28;20679;-55
2021/09/02 11:05:07;;;;;;;2.97;2.30;;;19.80;56.60;;;;;;4977329;28;20041;-55
2021/09/02 11:07:36;;;;;;;4.65;2.03;;;19.90;56.00;;;;;;4984506;28;20038;-54
2021/09/02 11:10:10;;;;;;;3.55;2.10;;;19.90;56.30;;;;;;4984192;28;20034;-57
2021/09/02 11:12:36;;;;;;;3.75;2.40;;;20.00;57.40;;;;;;4997924;28;20598;-53
2021/09/02 11:15:02;;;;;;;3.45;2.30;;;20.00;56.80;;;;;;4985494;28;20022;-54
2021/09/02 11:17:27;;;;;;;4.38;2.25;;;20.10;56.70;;;;;;4981125;28;20038;-56
2021/09/02 11:19:53;;;;;;;3.85;1.80;;;20.20;55.60;;;;;;4990577;28;20026;-54
2021/09/02 11:22:19;;;;;;;5.10;2.10;;;20.20;55.10;;;;;;4976919;28;20042;-53
2021/09/02 11:24:47;;;;;;;1.67;1.55;;;20.20;54.70;;;;;;4981512;28;20030;-55
2021/09/02 11:27:30;;;;;;;4.28;2.13;;;20.10;53.70;;;;;;4986952;28;20478;-54
2021/09/02 11:30:35;;;;;;;3.47;2.00;;;20.10;53.70;;;;;;4981410;28;20038;-51
2021/09/02 11:33:03;;;;;;;3.20;2.10;;;20.00;53.00;;;;;;4936666;28;20181;-53
2021/09/02 11:35:29;;;;;;;2.72;1.95;;;20.00;54.00;;;;;;4935543;28;20441;-54
2021/09/02 11:37:55;;;;;;;2.85;2.17;;;20.00;54.60;;;;;;4957362;28;20042;-53
2021/09/02 11:40:31;;;;;;;2.45;1.80;;;20.10;55.30;;;;;;4998279;28;20046;-54
2021/09/02 11:42:58;;;;;;;2.78;2.15;;;20.10;55.00;;;;;;4996166;28;20533;-53
2021/09/02 11:45:26;;;;;;;2.38;1.75;;;20.20;55.00;;;;;;4996374;28;20880;-53
2021/09/02 11:47:52;;;;;;;2.70;2.20;;;20.20;54.30;;;;;;5000716;28;20057;-54
2021/09/02 11:50:21;;;;;;;2.72;1.98;;;20.20;54.10;;;;;;5001437;28;20057;-51
2021/09/02 11:52:49;;;;;;;2.40;2.03;;;20.20;54.40;;;;;;5003084;28;20061;-53
2021/09/02 11:55:32;;;;;;;2.35;2.13;;;20.20;53.60;;;;;;4994825;28;20040;-53
2021/09/02 11:58:00;;;;;;;3.03;2.00;;;20.20;54.30;;;;;;4995356;28;20045;-53
2021/09/02 12:00:26;;;;;;;3.70;2.20;;;20.20;54.50;;;;;;4999600;28;20045;-53
2021/09/02 12:02:58;;;;;;;2.58;1.70;;;20.10;54.80;;;;;;4993445;28;20042;-54
2021/09/02 12:05:39;;;;;;;3.10;2.15;;;20.10;54.70;;;;;;4998379;28;20026;-55
2021/09/02 12:08:11;;;;;;;3.72;1.90;;;20.10;54.50;;;;;;4993023;28;20207;-54
2021/09/02 12:10:39;;;;;;;3.25;2.03;;;20.10;55.30;;;;;;4993899;28;20042;-54
2021/09/02 12:13:27;;;;;;;3.30;2.10;;;20.10;55.40;;;;;;4996982;28;20470;-54
2021/09/02 12:16:02;;;;;;;4.30;2.53;;;20.10;55.10;;;;;;4989942;28;20026;-56
2021/09/02 12:18:29;;;;;;;2.83;1.90;;;20.00;55.10;;;;;;4995378;28;20025;-53
2021/09/02 12:21:07;;;;;;;3.65;2.42;;;20.00;54.80;;;;;;4995959;28;20034;-52
2021/09/02 12:23:42;;;;;;;3.67;2.15;;;19.90;54.20;;;;;;4989812;28;20034;-54
2021/09/02 12:26:08;;;;;;;3.17;2.13;;;19.90;54.10;;;;;;4992878;28;20038;-52
2021/09/02 12:28:36;;;;;;;4.07;2.38;;;19.80;55.00;;;;;;4990471;28;20112;-52
2021/09/02 12:31:15;;;;;;;2.33;2.13;;;19.80;54.90;;;;;;4991457;28;20040;-54
2021/09/02 12:34:10;;;;;;;2.70;1.98;;;19.80;54.90;;;;;;4996595;28;20026;-54
2021/09/02 12:36:39;;;;;;;2.67;1.90;;;19.80;54.70;;;;;;4996495;28;20049;-55
2021/09/02 12:39:23;;;;;;;3.85;2.55;;;19.80;54.90;;;;;;4993363;28;20470;-51
2021/09/02 12:41:54;;;;;;;2.70;2.08;;;19.80;54.60;;;;;;4993926;28;21663;-50
2021/09/02 12:44:27;;;;;;;2.45;2.13;;;19.70;54.90;;;;;;4993902;28;20034;-52
2021/09/02 12:46:59;;;;;;;2.40;2.20;;;19.70;55.00;;;;;;4994067;28;20084;-53
2021/09/02 12:49:37;;;;;;;3.80;2.00;;;19.70;55.00;;;;;;4993607;28;20037;-52
2021/09/02 12:52:05;;;;;;;3.63;2.10;;;19.70;54.90;;;;;;5000026;28;20040;-52
2021/09/02 12:54:57;;;;;;;3.10;2.10;;;19.80;55.20;;;;;;4997737;28;20026;-53